createdAt,value
2022-11-20T06:28:24.230Z,96307.91
2022-11-20T06:30:52.426Z,96320.44
2022-11-20T06:33:20.004Z,96329.03
2022-11-20T06:35:48.053Z,96342.41
2022-11-20T06:38:15.661Z,96338.44
2022-11-20T06:40:43.395Z,96344.69
2022-11-20T06:43:11.269Z,96350.09
2022-11-20T06:45:38.942Z,96334.16
2022-11-20T06:48:06.762Z,96347.06
2022-11-20T06:50:34.469Z,96351.59
2022-11-20T06:53:03.690Z,96358.94
2022-11-20T06:55:32.246Z,96366.38
2022-11-20T06:57:59.869Z,96356.88
2022-11-20T07:00:27.640Z,96358.72
2022-11-20T07:02:56.140Z,96356.72
2022-11-20T07:05:23.991Z,96352.31
2022-11-20T07:07:51.574Z,96355.56
2022-11-20T07:10:19.303Z,96354.22
2022-11-20T07:12:51.081Z,96360.81
2022-11-20T07:15:19.530Z,96351.41
2022-11-20T07:17:47.290Z,96349.66
2022-11-20T07:20:15.643Z,96359.66
2022-11-20T07:22:43.318Z,96368.16
2022-11-20T07:25:11.094Z,96355.31
2022-11-20T07:27:38.828Z,96358.75
2022-11-20T07:30:07.361Z,96344.25
2022-11-20T07:32:35.201Z,96358.38
2022-11-20T07:35:03.224Z,96364.88
2022-11-20T07:37:30.815Z,96377.94
2022-11-20T07:39:58.477Z,96379.06
2022-11-20T07:42:26.184Z,96376.41
2022-11-20T07:44:53.911Z,96372.81
2022-11-20T07:47:22.038Z,96361.03
2022-11-20T07:49:49.777Z,96356.69
2022-11-20T07:52:17.366Z,96364.75
2022-11-20T07:54:45.080Z,96366.03
2022-11-20T07:57:12.974Z,96371.47
2022-11-20T07:59:40.722Z,96374.44
2022-11-20T08:02:11.695Z,96358.53
2022-11-20T08:04:39.533Z,96366.09
2022-11-20T08:07:07.255Z,96360.38
2022-11-20T08:09:34.925Z,96358.38
2022-11-20T08:12:21.053Z,96368.44
2022-11-20T08:14:48.676Z,96378.38
2022-11-20T08:17:16.330Z,96381.75
2022-11-20T08:19:44.038Z,96384.66
2022-11-20T08:22:11.753Z,96387.56
2022-11-20T08:24:39.445Z,96388.91
2022-11-20T08:27:07.544Z,96393.06
2022-11-20T08:29:35.427Z,96391.75
2022-11-20T08:32:03.591Z,96379.84
2022-11-20T08:34:33.031Z,96378.13
2022-11-20T08:37:02.528Z,96375.56
2022-11-20T08:39:30.173Z,96379.59
2022-11-20T08:41:58.146Z,96374.91
2022-11-20T08:44:25.916Z,96385.53
2022-11-20T08:46:53.486Z,96379.31
2022-11-20T08:49:22.086Z,96383.78
2022-11-20T08:51:52.791Z,96398.34
2022-11-20T08:54:23.000Z,96396.44
2022-11-20T08:56:51.031Z,96378.34
2022-11-20T08:59:36.938Z,96384.00
2022-11-20T09:02:06.498Z,96388.81
2022-11-20T09:04:34.778Z,96382.84
2022-11-20T09:07:02.842Z,96386.28
2022-11-20T09:09:30.805Z,96391.59
2022-11-20T09:11:58.866Z,96399.13
2022-11-20T09:14:30.340Z,96399.66
2022-11-20T09:16:58.197Z,96398.38
2022-11-20T09:19:35.391Z,96405.56
2022-11-20T09:22:04.026Z,96404.09
2022-11-20T09:24:31.705Z,96418.00
2022-11-20T09:26:59.320Z,96412.13
2022-11-20T09:29:26.937Z,96422.22
2022-11-20T09:31:56.022Z,96417.41
2022-11-20T09:34:23.703Z,96414.19
2022-11-20T09:36:51.664Z,96404.47
2022-11-20T09:39:19.868Z,96397.97
2022-11-20T09:42:06.821Z,96382.00
2022-11-20T09:44:57.404Z,96381.69
2022-11-20T09:47:47.438Z,96383.59
2022-11-20T09:50:33.006Z,96377.78
2022-11-20T09:53:26.022Z,96371.13
2022-11-20T09:55:54.834Z,96369.91
2022-11-20T09:58:50.297Z,96380.44
2022-11-20T10:01:28.244Z,96380.81
2022-11-20T10:04:03.392Z,96372.31
2022-11-20T10:06:35.522Z,96355.66
2022-11-20T10:09:09.188Z,96363.88
2022-11-20T10:11:49.294Z,96363.38
2022-11-20T10:14:35.048Z,96345.19
2022-11-20T10:17:24.248Z,96343.41
2022-11-20T10:20:05.162Z,96332.19
2022-11-20T10:22:57.240Z,96306.97
2022-11-20T10:25:54.694Z,96305.03
2022-11-20T10:28:41.035Z,96309.84
2022-11-20T10:31:11.410Z,96322.06
2022-11-20T10:34:10.486Z,96329.25
2022-11-20T10:36:31.923Z,96330.59
2022-11-20T10:39:08.012Z,96337.13
2022-11-20T10:41:40.514Z,96331.16
2022-11-20T10:44:13.802Z,96322.22
2022-11-20T10:46:45.449Z,96330.25
2022-11-20T10:49:17.649Z,96319.66
2022-11-20T10:51:58.088Z,96320.13
2022-11-20T10:54:42.025Z,96323.09
2022-11-20T10:57:18.941Z,96309.13
2022-11-20T11:00:04.170Z,96303.88
2022-11-20T11:02:48.728Z,96307.03
2022-11-20T11:05:23.720Z,96311.28
2022-11-20T11:07:54.486Z,96308.06
2022-11-20T11:10:37.303Z,96303.16
2022-11-20T11:13:05.268Z,96299.38
2022-11-20T11:15:40.772Z,96303.16
2022-11-20T11:18:11.799Z,96301.19
2022-11-20T11:20:40.038Z,96296.38
2022-11-20T11:23:23.575Z,96294.84
2022-11-20T11:25:59.025Z,96284.31
2022-11-20T11:28:28.600Z,96276.66
2022-11-20T11:30:56.905Z,96267.97
2022-11-20T11:33:25.480Z,96263.94
2022-11-20T11:36:00.499Z,96257.31
2022-11-20T11:38:41.908Z,96266.44
2022-11-20T11:41:14.066Z,96263.94
2022-11-20T11:44:00.471Z,96269.19
2022-11-20T11:46:34.090Z,96262.19
2022-11-20T11:49:01.949Z,96271.97
2022-11-20T11:51:50.936Z,96269.59
2022-11-20T11:54:21.510Z,96262.53
2022-11-20T11:56:49.088Z,96252.13
2022-11-20T11:59:29.003Z,96260.06
2022-11-20T12:01:59.809Z,96259.53
2022-11-20T12:04:42.950Z,96265.06
2022-11-20T12:07:47.267Z,96244.69
2022-11-20T12:10:23.333Z,96239.28
2022-11-20T12:12:53.646Z,96228.16
2022-11-20T12:15:32.648Z,96223.19
2022-11-20T12:18:00.575Z,96223.06
2022-11-20T12:20:33.680Z,96207.59
2022-11-20T12:23:37.838Z,96187.00
2022-11-20T12:26:11.555Z,96191.13
2022-11-20T12:28:50.120Z,96186.78
2022-11-20T12:31:45.588Z,96171.88
2022-11-20T12:34:29.113Z,96168.28
2022-11-20T12:37:10.056Z,96151.44
2022-11-20T12:39:44.286Z,96144.97
2022-11-20T12:42:40.600Z,96132.94
2022-11-20T12:45:13.865Z,96127.28
2022-11-20T12:48:15.632Z,96119.25
2022-11-20T12:51:15.239Z,96107.19
2022-11-20T12:54:08.604Z,96113.09
2022-11-20T12:57:23.924Z,96116.94
2022-11-20T13:00:12.046Z,96114.34
2022-11-20T13:03:09.000Z,96113.31
2022-11-20T13:05:58.047Z,96113.13
2022-11-20T13:08:37.296Z,96109.31
2022-11-20T13:11:11.340Z,96113.72
2022-11-20T13:14:12.744Z,96114.16
2022-11-20T13:17:03.304Z,96109.72
2022-11-20T13:19:33.793Z,96109.31
2022-11-20T13:22:01.482Z,96110.53
2022-11-20T13:24:33.239Z,96107.94
2022-11-20T13:27:10.257Z,96103.50
2022-11-20T13:29:44.853Z,96101.09
2022-11-20T13:32:19.760Z,96095.88
2022-11-20T13:34:54.788Z,96099.50
2022-11-20T13:37:33.145Z,96105.16
2022-11-20T13:40:09.849Z,96106.19
2022-11-20T13:42:45.554Z,96108.19
2022-11-20T13:45:29.074Z,96105.19
2022-11-20T13:47:57.641Z,96100.56
2022-11-20T13:50:37.575Z,96110.81
2022-11-20T13:53:08.722Z,96107.41
2022-11-20T13:56:02.762Z,96114.84
2022-11-20T13:58:55.966Z,96112.63
2022-11-20T14:01:30.494Z,96109.78
2022-11-20T14:04:06.158Z,96113.00
2022-11-20T14:06:42.845Z,96111.81
2022-11-20T14:09:15.001Z,96113.81
2022-11-20T14:11:49.362Z,96112.59
2022-11-20T14:14:18.976Z,96118.81
2022-11-20T14:16:47.242Z,96121.66
2022-11-20T14:19:20.689Z,96122.25
2022-11-20T14:22:23.008Z,96127.66
2022-11-20T14:25:13.867Z,96127.03
2022-11-20T14:27:44.784Z,96127.88
2022-11-20T14:30:17.241Z,96132.66
2022-11-20T14:32:45.313Z,96135.69
2022-11-20T14:35:21.900Z,96126.22
2022-11-20T14:37:49.602Z,96124.63
